Time,TemperatureF,DewpointF,PressureIn,WindDirection,WindDirectionDegrees,WindSpeedMPH,WindSpeedGustMPH,Humidity,HourlyPrecipIn,Conditions,Clouds,dailyrainin,SolarRadiationWatts/m^2,SoftwareType,DateUTC
2013-07-06 00:33:00,50.0,50.0,-100.00,SSW,208,2.0,5.0,99,0.01,,,0.05,3.000000,,2013-07-06 08:33:00,
2013-07-06 00:43:00,50.0,50.0,-100.00,SSW,208,2.0,5.0,99,0.01,,,0.05,3.000000,,2013-07-06 08:43:00,
2013-07-06 00:54:00,50.0,50.0,-100.00,SSW,208,2.0,5.0,99,0.01,,,0.05,3.000000,,2013-07-06 08:54:00,
2013-07-06 01:33:00,50.0,50.0,-100.00,ENE,66,3.0,7.0,99,0.00,,,0.05,0.000000,,2013-07-06 09:33:00,
2013-07-06 01:43:00,50.0,50.0,-100.00,ENE,66,3.0,7.0,99,0.00,,,0.05,0.000000,,2013-07-06 09:43:00,
2013-07-06 01:52:00,50.0,50.0,-100.00,ENE,66,3.0,7.0,99,0.00,,,0.05,0.000000,,2013-07-06 09:52:00,
2013-07-06 02:22:00,50.0,49.0,-100.00,East,96,3.0,7.0,95,0.00,,,0.05,0.000000,,2013-07-06 10:22:00,
2013-07-06 02:33:00,50.0,49.0,-100.00,East,96,3.0,7.0,95,0.00,,,0.05,0.000000,,2013-07-06 10:33:00,
2013-07-06 02:42:00,50.0,49.0,-100.00,East,96,3.0,7.0,95,0.00,,,0.05,0.000000,,2013-07-06 10:42:00,
2013-07-06 02:53:00,50.0,49.0,-100.00,East,96,3.0,7.0,95,0.00,,,0.05,0.000000,,2013-07-06 10:53:00,
2013-07-06 03:11:00,49.0,48.0,-100.00,NE,48,2.0,6.0,97,-99.99,,,-99.99,,,2013-07-06 11:11:00,
2013-07-06 03:22:00,49.0,48.0,-100.00,NE,48,2.0,7.0,97,0.00,,,0.05,0.000000,,2013-07-06 11:22:00,
2013-07-06 03:33:00,49.0,48.0,-100.00,NE,48,2.0,7.0,97,0.00,,,0.05,0.000000,,2013-07-06 11:33:00,
2013-07-06 03:42:00,49.0,48.0,-100.00,NE,48,2.0,7.0,97,0.00,,,0.05,0.000000,,2013-07-06 11:42:00,
2013-07-06 03:52:00,49.0,48.0,-100.00,NE,48,2.0,7.0,97,0.00,,,0.05,0.000000,,2013-07-06 11:52:00,
2013-07-06 04:22:00,49.0,48.0,-100.00,WSW,247,2.0,7.0,98,0.00,,,0.05,0.000000,,2013-07-06 12:22:00,
2013-07-06 04:33:00,49.0,48.0,-100.00,WSW,247,2.0,7.0,98,0.00,,,0.05,0.000000,,2013-07-06 12:33:00,
2013-07-06 04:43:00,49.0,48.0,-100.00,WSW,247,2.0,7.0,98,0.00,,,0.05,0.000000,,2013-07-06 12:43:00,
2013-07-06 04:52:00,49.0,48.0,-100.00,WSW,247,2.0,7.0,98,0.00,,,0.05,0.000000,,2013-07-06 12:52:00,
2013-07-06 05:22:00,49.0,48.0,-100.00,NE,43,2.0,4.0,98,0.00,,,0.05,1.000000,,2013-07-06 13:22:00,
2013-07-06 05:33:00,49.0,48.0,-100.00,NE,43,2.0,4.0,98,0.00,,,0.05,1.000000,,2013-07-06 13:33:00,
2013-07-06 05:43:00,49.0,48.0,-100.00,NE,43,2.0,4.0,98,0.00,,,0.05,1.000000,,2013-07-06 13:43:00,
2013-07-06 05:52:00,49.0,48.0,-100.00,NE,43,2.0,4.0,98,0.00,,,0.05,1.000000,,2013-07-06 13:52:00,
2013-07-06 06:42:00,50.0,49.0,-100.00,ESE,121,2.0,5.0,98,0.00,,,0.05,6.000000,,2013-07-06 14:42:00,
2013-07-06 06:53:00,50.0,49.0,-100.00,ESE,121,2.0,5.0,98,0.00,,,0.05,6.000000,,2013-07-06 14:53:00,
2013-07-06 07:12:00,50.0,49.0,-100.00,East,91,1.0,3.0,98,-99.99,,,-99.99,,,2013-07-06 15:12:00,
2013-07-06 07:22:00,50.0,49.0,-100.00,East,91,1.0,4.0,98,0.00,,,0.05,20.000000,,2013-07-06 15:22:00,
2013-07-06 07:33:00,50.0,49.0,-100.00,East,91,1.0,4.0,98,0.00,,,0.05,20.000000,,2013-07-06 15:33:00,
2013-07-06 07:43:00,50.0,49.0,-100.00,East,91,1.0,4.0,98,0.00,,,0.05,20.000000,,2013-07-06 15:43:00,
2013-07-06 07:52:00,50.0,49.0,-100.00,East,91,1.0,4.0,98,0.00,,,0.05,20.000000,,2013-07-06 15:52:00,
2013-07-06 07:56:00,51.0,50.0,-100.00,WNW,286,2.0,4.0,98,0.00,,,-99.99,32.000000,,2013-07-06 15:56:00,
2013-07-06 08:23:00,51.0,50.0,-100.00,WNW,286,2.0,4.0,98,0.00,,,-99.99,32.000000,,2013-07-06 16:23:00,
2013-07-06 09:38:00,52.0,51.0,-100.00,WSW,254,2.0,4.0,98,0.00,,,-99.99,37.000000,,2013-07-06 17:38:00,
2013-07-06 09:55:00,52.0,51.0,-100.00,WSW,254,2.0,4.0,98,0.00,,,-99.99,37.000000,,2013-07-06 17:55:00,
2013-07-06 10:19:00,54.0,53.0,-100.00,WNW,292,3.0,8.0,95,-99.99,,,-99.99,,,2013-07-06 18:19:00,
2013-07-06 10:28:00,54.0,53.0,-100.00,WNW,292,3.0,8.0,95,0.00,,,0.05,63.000000,,2013-07-06 18:28:00,
2013-07-06 10:38:00,54.0,53.0,-100.00,WNW,292,3.0,8.0,95,0.00,,,0.05,63.000000,,2013-07-06 18:38:00,
2013-07-06 10:47:00,54.0,53.0,-100.00,WNW,292,3.0,8.0,95,0.00,,,0.05,63.000000,,2013-07-06 18:47:00,
2013-07-06 10:55:00,54.0,53.0,-100.00,WNW,292,3.0,8.0,95,0.00,,,0.05,63.000000,,2013-07-06 18:55:00,
2013-07-06 11:36:00,55.0,51.0,-100.00,West,260,3.0,7.0,85,0.00,,,0.05,112.000000,,2013-07-06 19:36:00,
2013-07-06 11:46:00,55.0,51.0,-100.00,West,260,3.0,7.0,85,0.00,,,0.05,112.000000,,2013-07-06 19:46:00,
2013-07-06 12:17:00,58.0,52.0,-100.00,WNW,284,3.0,6.0,79,-99.99,,,-99.99,,,2013-07-06 20:17:00,
2013-07-06 12:27:00,58.0,52.0,-100.00,WNW,284,3.0,7.0,79,0.00,,,0.05,174.000000,,2013-07-06 20:27:00,
2013-07-06 12:47:00,58.0,52.0,-100.00,WNW,284,3.0,7.0,79,0.00,,,0.05,174.000000,,2013-07-06 20:47:00,
2013-07-06 12:53:00,58.0,52.0,-100.00,WNW,284,3.0,7.0,79,0.00,,,0.05,174.000000,,2013-07-06 20:53:00,
2013-07-06 13:15:00,60.0,50.0,-100.00,West,263,2.0,4.0,70,-99.99,,,-99.99,,,2013-07-06 21:15:00,
2013-07-06 13:27:00,60.0,50.0,-100.00,West,263,2.0,5.0,70,0.00,,,0.05,233.000000,,2013-07-06 21:27:00,
2013-07-06 13:38:00,60.0,50.0,-100.00,West,263,2.0,5.0,70,0.00,,,0.05,233.000000,,2013-07-06 21:38:00,
2013-07-06 13:47:00,60.0,50.0,-100.00,West,263,2.0,5.0,70,0.00,,,0.05,233.000000,,2013-07-06 21:47:00,
2013-07-06 14:46:00,60.0,51.0,-100.00,WNW,282,3.0,7.0,71,0.00,,,0.05,157.000000,,2013-07-06 22:46:00,
2013-07-06 14:54:00,60.0,51.0,-100.00,WNW,282,3.0,7.0,71,0.00,,,0.05,157.000000,,2013-07-06 22:54:00,
2013-07-06 15:17:00,63.0,50.0,-100.00,NNW,330,3.0,6.0,62,-99.99,,,-99.99,,,2013-07-06 23:17:00,
2013-07-06 15:27:00,63.0,50.0,-100.00,NNW,330,3.0,7.0,62,0.00,,,-99.99,261.000000,,2013-07-06 23:27:00,
2013-07-06 15:46:00,63.0,50.0,-100.00,NNW,330,3.0,7.0,62,0.00,,,-99.99,261.000000,,2013-07-06 23:46:00,
2013-07-06 15:54:00,63.0,50.0,-100.00,NNW,330,3.0,7.0,62,0.00,,,-99.99,261.000000,,2013-07-06 23:54:00,
2013-07-06 16:18:00,61.0,47.0,-100.00,WSW,247,2.0,6.0,61,-99.99,,,-99.99,,,2013-07-07 00:18:00,
2013-07-06 16:53:00,61.0,47.0,-100.00,WSW,247,2.0,7.0,61,0.00,,,0.05,200.000000,,2013-07-07 00:53:00,
2013-07-06 17:26:00,60.0,49.0,-100.00,North,349,2.0,5.0,66,0.00,,,0.05,101.000000,,2013-07-07 01:26:00,
2013-07-06 17:46:00,60.0,49.0,-100.00,North,349,2.0,5.0,66,0.00,,,0.05,101.000000,,2013-07-07 01:46:00,
2013-07-06 17:54:00,60.0,49.0,-100.00,North,349,2.0,5.0,66,0.00,,,0.05,101.000000,,2013-07-07 01:54:00,
2013-07-06 18:26:00,60.0,52.0,-100.00,South,176,1.0,4.0,75,0.00,,,0.05,93.000000,,2013-07-07 02:26:00,
2013-07-06 18:44:00,60.0,52.0,-100.00,South,176,1.0,4.0,75,0.00,,,0.05,93.000000,,2013-07-07 02:44:00,
2013-07-06 19:26:00,61.0,49.0,-100.00,West,259,2.0,5.0,64,0.00,,,0.05,160.000000,,2013-07-07 03:26:00,
2013-07-06 19:34:00,61.0,49.0,-100.00,West,259,2.0,5.0,64,0.00,,,0.05,160.000000,,2013-07-07 03:34:00,
2013-07-06 19:53:00,61.0,49.0,-100.00,West,259,2.0,5.0,64,0.00,,,0.05,160.000000,,2013-07-07 03:53:00,
2013-07-06 20:21:00,58.0,47.0,-100.00,NE,48,1.0,5.0,68,0.00,,,0.05,59.000000,,2013-07-07 04:21:00,
2013-07-06 20:31:00,58.0,47.0,-100.00,NE,48,1.0,5.0,68,0.00,,,0.05,59.000000,,2013-07-07 04:31:00,
2013-07-06 20:41:00,58.0,47.0,-100.00,NE,48,1.0,5.0,68,0.00,,,0.05,59.000000,,2013-07-07 04:41:00,
2013-07-06 20:51:00,58.0,47.0,-100.00,NE,48,1.0,5.0,68,0.00,,,0.05,59.000000,,2013-07-07 04:51:00,
2013-07-06 21:21:00,56.0,51.0,-100.00,ESE,116,1.0,2.0,84,0.00,,,0.05,34.000000,,2013-07-07 05:21:00,
2013-07-06 21:31:00,56.0,51.0,-100.00,ESE,116,1.0,2.0,84,0.00,,,0.05,34.000000,,2013-07-07 05:31:00,
2013-07-06 21:41:00,56.0,51.0,-100.00,ESE,116,1.0,2.0,84,0.00,,,0.05,34.000000,,2013-07-07 05:41:00,
2013-07-06 21:51:00,56.0,51.0,-100.00,ESE,116,1.0,2.0,84,0.00,,,0.05,34.000000,,2013-07-07 05:51:00,
2013-07-06 22:21:00,55.0,51.0,-100.00,East,92,2.0,3.0,86,0.00,,,0.04,29.000000,,2013-07-07 06:21:00,
2013-07-06 22:32:00,55.0,51.0,-100.00,East,92,2.0,3.0,86,0.00,,,0.04,29.000000,,2013-07-07 06:32:00,
2013-07-06 22:43:00,55.0,51.0,-100.00,East,92,2.0,3.0,86,0.00,,,0.04,29.000000,,2013-07-07 06:43:00,
2013-07-06 22:52:00,55.0,51.0,-100.00,East,92,2.0,3.0,86,0.00,,,0.04,29.000000,,2013-07-07 06:52:00,
2013-07-06 23:22:00,52.0,49.0,-100.00,NNE,28,1.0,4.0,89,0.00,,,0.01,19.000000,,2013-07-07 07:22:00,
2013-07-06 23:33:00,52.0,49.0,-100.00,NNE,28,1.0,4.0,89,0.00,,,0.01,19.000000,,2013-07-07 07:33:00,
2013-07-06 23:44:00,52.0,49.0,-100.00,NNE,28,1.0,4.0,89,0.00,,,0.01,19.000000,,2013-07-07 07:44:00,
2013-07-06 23:53:00,52.0,49.0,-100.00,NNE,28,1.0,4.0,89,0.00,,,0.01,19.000000,,2013-07-07 07:53:00,